Time;durP1;ratioP1;P1;durP2;ratioP2;P2;SDS_P1;SDS_P2;PMS_P1;PMS_P2;Temp;Humidity;BMP_temperature;BMP_pressure;BME280_temperature;BME280_humidity;BME280_pressure;Samples;Min_cycle;Max_cycle;Signal;HPM_P1;HPM_P2
2022/10/04 00:01:29;;;;;;;7.30;4.63;;;11.70;99.90;;;;;;7390655;19;20130;-82
2022/10/04 00:04:27;;;;;;;6.80;4.63;;;11.50;99.90;;;;;;7393137;19;20910;-83
2022/10/04 00:07:01;;;;;;;6.30;4.37;;;11.60;99.90;;;;;;7389103;19;20142;-81
2022/10/04 00:10:00;;;;;;;7.17;4.30;;;11.90;99.90;;;;;;7392152;19;20599;-83
2022/10/04 00:12:49;;;;;;;7.90;5.17;;;11.90;99.90;;;;;;7391738;19;20210;-82
2022/10/04 00:15:23;;;;;;;7.77;4.80;;;11.90;99.90;;;;;;7389891;19;20139;-83
2022/10/04 00:18:17;;;;;;;7.50;4.80;;;12.00;99.90;;;;;;7381623;19;20149;-82
2022/10/04 00:20:46;;;;;;;8.83;5.53;;;12.10;99.90;;;;;;7389282;19;20556;-82
2022/10/04 00:23:24;;;;;;;8.07;5.17;;;12.10;99.90;;;;;;7391253;19;20143;-81
2022/10/04 00:26:24;;;;;;;8.63;5.70;;;12.10;99.90;;;;;;7390050;19;20181;-82
2022/10/04 00:28:51;;;;;;;7.63;4.93;;;12.10;99.90;;;;;;7389216;19;20142;-82
2022/10/04 00:31:17;;;;;;;8.63;5.17;;;11.90;99.90;;;;;;7390114;19;20607;-82
2022/10/04 00:34:02;;;;;;;9.93;5.30;;;11.90;99.90;;;;;;7387718;19;20150;-82
2022/10/04 00:36:51;;;;;;;8.50;5.03;;;11.90;99.90;;;;;;7388810;19;20138;-80
2022/10/04 00:39:37;;;;;;;7.37;5.30;;;12.00;99.90;;;;;;7390546;19;20174;-81
2022/10/04 00:42:21;;;;;;;7.90;5.43;;;12.00;99.90;;;;;;7392291;19;20238;-82
2022/10/04 00:44:58;;;;;;;8.27;5.23;;;11.90;99.90;;;;;;7392733;19;20193;-82
2022/10/04 00:47:59;;;;;;;6.50;4.70;;;11.90;99.90;;;;;;7389711;19;20194;-81
2022/10/04 00:50:40;;;;;;;12.20;6.23;;;11.90;99.90;;;;;;7389995;19;20146;-83
2022/10/04 00:53:33;;;;;;;7.57;5.07;;;12.00;99.90;;;;;;7390899;19;20450;-81
2022/10/04 00:56:02;;;;;;;10.10;5.27;;;12.00;99.90;;;;;;7389888;19;20488;-83
2022/10/04 00:58:37;;;;;;;8.93;4.97;;;11.90;99.90;;;;;;7388880;19;20162;-83
2022/10/04 01:01:03;;;;;;;7.63;5.20;;;11.80;99.90;;;;;;7389134;19;20141;-82
2022/10/04 01:03:33;;;;;;;7.53;4.93;;;11.90;99.90;;;;;;7391818;19;20477;-81
2022/10/04 01:06:04;;;;;;;7.43;4.93;;;11.90;99.90;;;;;;7387703;19;20166;-82
2022/10/04 01:08:46;;;;;;;8.57;5.20;;;11.40;99.90;;;;;;7391311;19;20643;-82
2022/10/04 01:11:15;;;;;;;8.40;5.27;;;11.10;99.90;;;;;;7390838;19;20145;-81
2022/10/04 01:13:48;;;;;;;7.13;4.87;;;11.10;99.90;;;;;;7390768;19;20146;-82
2022/10/04 01:16:28;;;;;;;5.90;4.57;;;11.30;99.90;;;;;;7391607;19;20162;-81
2022/10/04 01:18:55;;;;;;;8.43;5.43;;;11.30;99.90;;;;;;7390140;19;20266;-82
2022/10/04 01:21:26;;;;;;;8.67;6.00;;;11.50;99.90;;;;;;7389272;19;20166;-79
2022/10/04 01:23:56;;;;;;;8.63;5.00;;;11.60;99.90;;;;;;7389576;19;20150;-81
2022/10/04 01:26:28;;;;;;;8.10;5.63;;;11.80;99.90;;;;;;7386692;19;20731;-81
2022/10/04 01:29:22;;;;;;;7.67;5.30;;;11.70;99.90;;;;;;7390544;19;20147;-81
2022/10/04 01:31:50;;;;;;;10.43;5.10;;;11.70;99.90;;;;;;7388547;19;20154;-81
2022/10/04 01:34:19;;;;;;;7.20;5.80;;;11.60;99.90;;;;;;7389256;19;20167;-82
2022/10/04 01:36:47;;;;;;;8.23;4.93;;;11.20;99.90;;;;;;7389076;19;20154;-79
2022/10/04 01:39:16;;;;;;;13.03;5.73;;;11.00;99.90;;;;;;7390040;19;20621;-80
2022/10/04 01:41:52;;;;;;;8.43;5.27;;;11.00;99.90;;;;;;7395171;19;20154;-81
2022/10/04 01:44:31;;;;;;;8.40;5.23;;;10.80;99.90;;;;;;7397881;19;20142;-82
2022/10/04 01:47:01;;;;;;;6.17;5.20;;;10.80;99.90;;;;;;7397198;19;20139;-81
2022/10/04 01:49:31;;;;;;;7.67;4.67;;;10.40;99.90;;;;;;7396064;19;20151;-82
2022/10/04 01:52:13;;;;;;;7.57;5.20;;;10.60;99.90;;;;;;7394415;19;20158;-82
2022/10/04 01:54:47;;;;;;;8.13;5.47;;;10.80;99.90;;;;;;7392651;19;20135;-81
2022/10/04 01:57:18;;;;;;;8.73;5.23;;;11.10;99.90;;;;;;7395820;19;20218;-82
2022/10/04 02:00:08;;;;;;;6.07;5.20;;;11.20;99.90;;;;;;7393627;19;20154;-81
2022/10/04 02:02:42;;;;;;;7.80;5.40;;;10.90;99.90;;;;;;7394371;19;20936;-81
2022/10/04 02:05:12;;;;;;;5.27;4.53;;;11.10;99.90;;;;;;7396187;19;20150;-81
2022/10/04 02:07:39;;;;;;;8.77;5.10;;;11.30;99.90;;;;;;7395017;19;20158;-81
2022/10/04 02:10:15;;;;;;;7.63;5.10;;;11.20;99.90;;;;;;7395127;19;20150;-82
2022/10/04 02:12:51;;;;;;;7.00;4.60;;;11.20;99.90;;;;;;7396266;19;20138;-82
2022/10/04 02:15:19;;;;;;;6.30;4.50;;;11.40;99.90;;;;;;7391792;19;20627;-82
2022/10/04 02:17:46;;;;;;;7.77;5.40;;;11.50;99.90;;;;;;7391327;19;20170;-81
2022/10/04 02:20:22;;;;;;;8.17;4.70;;;11.50;99.90;;;;;;7394535;19;20691;-82
2022/10/04 02:23:02;;;;;;;9.57;5.30;;;11.50;99.90;;;;;;7395429;19;20631;-82
2022/10/04 02:25:28;;;;;;;6.70;5.43;;;11.50;99.90;;;;;;7389964;19;20711;-81
2022/10/04 02:27:54;;;;;;;5.93;4.70;;;11.50;99.90;;;;;;7394616;19;20135;-79
2022/10/04 02:30:21;;;;;;;8.07;5.03;;;11.40;99.90;;;;;;7395214;19;20131;-81
2022/10/04 02:32:56;;;;;;;9.23;5.33;;;11.40;99.90;;;;;;7396584;19;20147;-81
2022/10/04 02:35:34;;;;;;;9.27;5.10;;;11.30;99.90;;;;;;7396358;19;20140;-81
2022/10/04 02:38:33;;;;;;;8.57;5.27;;;11.40;99.90;;;;;;7396062;19;20198;-80
2022/10/04 02:41:11;;;;;;;9.33;5.13;;;11.40;99.90;;;;;;7393414;19;20158;-82
2022/10/04 02:44:12;;;;;;;6.90;5.00;;;11.20;99.90;;;;;;7392780;19;20134;-83
2022/10/04 02:46:43;;;;;;;5.17;4.57;;;11.20;99.90;;;;;;7395555;19;20152;-82
2022/10/04 02:49:46;;;;;;;6.77;4.93;;;11.30;99.90;;;;;;7394880;19;20162;-81
2022/10/04 02:52:17;;;;;;;9.17;5.30;;;11.30;99.90;;;;;;7391901;19;20150;-80
2022/10/04 02:55:08;;;;;;;5.97;4.83;;;11.40;99.90;;;;;;7394790;19;20177;-82
2022/10/04 02:57:34;;;;;;;6.37;4.83;;;11.30;99.90;;;;;;7395792;19;20130;-78
2022/10/04 03:00:18;;;;;;;5.03;4.53;;;11.30;99.90;;;;;;7392370;19;20127;-78
2022/10/04 03:03:22;;;;;;;6.47;5.00;;;11.20;99.90;;;;;;7394430;19;20127;-77
2022/10/04 03:06:12;;;;;;;6.23;4.77;;;11.20;99.90;;;;;;7394966;19;20314;-77
2022/10/04 03:08:52;;;;;;;9.37;5.07;;;11.30;99.90;;;;;;7394989;19;20142;-78
2022/10/04 03:11:22;;;;;;;8.07;5.17;;;11.20;99.90;;;;;;7394582;19;20447;-77
2022/10/04 03:13:51;;;;;;;5.37;4.63;;;10.60;99.90;;;;;;7391221;19;20131;-77
2022/10/04 03:16:18;;;;;;;11.07;5.13;;;10.50;99.90;;;;;;7389353;19;20198;-77
2022/10/04 03:18:46;;;;;;;6.40;5.07;;;10.80;99.90;;;;;;7393657;19;20131;-78
2022/10/04 03:21:14;;;;;;;6.20;4.87;;;10.90;99.90;;;;;;7389746;19;20134;-78
2022/10/04 03:23:41;;;;;;;6.67;4.93;;;11.10;99.90;;;;;;7392231;19;20138;-78
2022/10/04 03:26:45;;;;;;;7.47;4.93;;;11.20;99.90;;;;;;7387249;19;20163;-77
2022/10/04 03:29:13;;;;;;;6.20;4.80;;;11.30;99.90;;;;;;7389900;19;20502;-77
2022/10/04 03:31:51;;;;;;;5.60;5.00;;;11.30;99.90;;;;;;7390061;19;20491;-77
2022/10/04 03:34:24;;;;;;;5.90;4.80;;;11.30;99.90;;;;;;7392218;19;20492;-78
2022/10/04 03:36:57;;;;;;;8.20;5.10;;;11.20;99.90;;;;;;7392629;19;20154;-78
2022/10/04 03:39:31;;;;;;;5.30;4.27;;;11.20;99.90;;;;;;7390095;19;20167;-77
2022/10/04 03:41:58;;;;;;;5.93;4.20;;;11.30;99.90;;;;;;7393957;19;20149;-77
2022/10/04 03:44:24;;;;;;;6.17;4.83;;;11.20;99.90;;;;;;7390570;19;20258;-77
2022/10/04 03:46:50;;;;;;;6.00;4.20;;;11.20;99.90;;;;;;7390751;19;20162;-77
2022/10/04 03:49:25;;;;;;;7.77;4.50;;;11.00;99.90;;;;;;7390290;19;20139;-78
2022/10/04 03:51:51;;;;;;;5.47;4.23;;;10.80;99.90;;;;;;7391782;19;20550;-78
2022/10/04 03:54:22;;;;;;;4.70;3.57;;;10.40;99.90;;;;;;7390154;19;20170;-78
2022/10/04 03:56:53;;;;;;;6.93;4.30;;;10.30;99.90;;;;;;7387961;19;20145;-78
2022/10/04 03:59:19;;;;;;;5.57;4.33;;;10.70;99.90;;;;;;7393211;19;20135;-77
2022/10/04 04:02:13;;;;;;;6.00;4.37;;;10.90;99.90;;;;;;7391272;19;20138;-78
2022/10/04 04:04:52;;;;;;;7.13;5.03;;;10.90;99.90;;;;;;7387988;19;20154;-78
2022/10/04 04:07:34;;;;;;;5.07;4.37;;;11.00;99.90;;;;;;7390990;19;20583;-77
2022/10/04 04:10:22;;;;;;;4.90;4.20;;;11.00;99.90;;;;;;7390416;19;20149;-78
2022/10/04 04:12:54;;;;;;;6.57;4.40;;;10.70;99.90;;;;;;7392275;19;20149;-78
2022/10/04 04:15:21;;;;;;;5.87;4.30;;;10.50;99.90;;;;;;7391604;19;20625;-78
2022/10/04 04:17:51;;;;;;;5.70;5.10;;;10.70;99.90;;;;;;7390808;19;20146;-78
2022/10/04 04:20:31;;;;;;;8.30;4.50;;;10.80;99.90;;;;;;7390903;19;20143;-78
2022/10/04 04:23:01;;;;;;;4.97;4.30;;;11.00;99.90;;;;;;7389624;19;20146;-79
2022/10/04 04:25:30;;;;;;;7.70;5.20;;;10.90;99.90;;;;;;7390985;19;20608;-79
2022/10/04 04:28:11;;;;;;;7.83;4.47;;;10.60;99.90;;;;;;7391617;19;20138;-78
2022/10/04 04:30:38;;;;;;;6.17;4.97;;;10.60;99.90;;;;;;7393178;19;20142;-79
2022/10/04 04:33:11;;;;;;;5.90;4.57;;;10.80;99.90;;;;;;7389825;19;20182;-79
2022/10/04 04:35:37;;;;;;;6.30;4.30;;;10.90;99.90;;;;;;7390590;19;20146;-79
2022/10/04 04:38:13;;;;;;;6.50;4.43;;;10.90;99.90;;;;;;7389849;19;20624;-79
2022/10/04 04:40:39;;;;;;;6.60;4.47;;;10.90;99.90;;;;;;7388011;19;20164;-78
2022/10/04 04:43:05;;;;;;;6.33;4.90;;;10.90;99.90;;;;;;7390660;19;20134;-78
2022/10/04 04:45:32;;;;;;;8.63;4.80;;;10.60;99.90;;;;;;7391887;19;20119;-78
2022/10/04 04:48:00;;;;;;;7.90;4.93;;;10.30;99.90;;;;;;7387003;19;20138;-78
2022/10/04 04:50:38;;;;;;;5.37;4.57;;;10.30;99.90;;;;;;7391780;19;20241;-79
2022/10/04 04:53:13;;;;;;;8.37;5.23;;;10.10;99.90;;;;;;7390952;19;20525;-79
2022/10/04 04:55:46;;;;;;;8.30;5.00;;;10.20;99.90;;;;;;7390433;19;20608;-78
2022/10/04 04:58:25;;;;;;;7.73;4.33;;;10.60;99.90;;;;;;7391012;19;20175;-77
2022/10/04 05:01:00;;;;;;;5.40;4.23;;;10.70;99.90;;;;;;7388414;19;20142;-77
2022/10/04 05:03:29;;;;;;;6.77;4.37;;;10.80;99.90;;;;;;7390758;19;20159;-77
2022/10/04 05:05:57;;;;;;;6.27;4.67;;;10.90;99.90;;;;;;7390128;19;20143;-77
2022/10/04 05:08:31;;;;;;;5.47;4.60;;;10.70;99.90;;;;;;7391044;19;20509;-78
2022/10/04 05:11:05;;;;;;;6.10;4.43;;;10.70;99.90;;;;;;7389393;19;20142;-78
2022/10/04 05:13:42;;;;;;;6.10;4.50;;;10.70;99.90;;;;;;7388790;19;20218;-78
2022/10/04 05:16:24;;;;;;;8.17;5.00;;;10.70;99.90;;;;;;7393491;19;20499;-77
2022/10/04 05:19:02;;;;;;;4.87;4.37;;;10.70;99.90;;;;;;7397267;19;20150;-79
2022/10/04 05:21:30;;;;;;;5.70;4.30;;;10.80;99.90;;;;;;7394578;19;20138;-79
2022/10/04 05:24:06;;;;;;;5.97;4.77;;;10.70;99.90;;;;;;7398154;19;20215;-78
2022/10/04 05:26:32;;;;;;;6.90;4.40;;;10.10;99.90;;;;;;7398314;19;20221;-78
2022/10/04 05:29:06;;;;;;;6.50;4.37;;;10.20;99.90;;;;;;7395497;19;20147;-78
2022/10/04 05:31:56;;;;;;;6.53;4.47;;;10.50;99.90;;;;;;7395313;19;20142;-76
2022/10/04 05:34:24;;;;;;;6.17;4.10;;;10.60;99.90;;;;;;7396488;19;20139;-77
2022/10/04 05:36:59;;;;;;;6.80;4.90;;;10.70;99.90;;;;;;7393408;19;20145;-76
2022/10/04 05:39:35;;;;;;;8.57;4.53;;;10.60;99.90;;;;;;7395415;19;20161;-77
2022/10/04 05:42:11;;;;;;;6.20;4.60;;;10.60;99.90;;;;;;7397737;19;20139;-77
2022/10/04 05:44:48;;;;;;;23.00;13.67;;;10.30;99.90;;;;;;7396737;19;20142;-78
2022/10/04 05:47:15;;;;;;;9.60;6.37;;;10.40;99.90;;;;;;7396495;19;20142;-78
2022/10/04 05:49:45;;;;;;;27.77;16.00;;;10.40;99.90;;;;;;7396145;19;20548;-78
2022/10/04 05:52:24;;;;;;;11.93;6.23;;;10.50;99.90;;;;;;7397478;19;20490;-78
2022/10/04 05:55:14;;;;;;;9.53;5.10;;;10.60;99.90;;;;;;7394861;19;20162;-76
2022/10/04 05:57:59;;;;;;;10.77;4.83;;;10.80;99.90;;;;;;7397057;19;20169;-76
2022/10/04 06:00:41;;;;;;;5.60;3.70;;;10.80;99.90;;;;;;7395887;19;20198;-78
2022/10/04 06:03:22;;;;;;;8.87;4.77;;;10.80;99.90;;;;;;7396454;19;20159;-78
2022/10/04 06:05:59;;;;;;;7.03;4.63;;;10.80;99.90;;;;;;7395673;19;20158;-77
2022/10/04 06:09:02;;;;;;;5.33;3.93;;;10.80;99.90;;;;;;7394809;19;20174;-75
2022/10/04 06:11:31;;;;;;;5.97;4.30;;;10.90;99.90;;;;;;7396650;19;20156;-76
2022/10/04 06:14:08;;;;;;;10.70;4.60;;;10.80;99.90;;;;;;7396322;19;20131;-77
2022/10/04 06:17:08;;;;;;;5.13;4.00;;;10.80;99.90;;;;;;7395440;19;20497;-79
2022/10/04 06:19:45;;;;;;;6.23;4.33;;;10.90;99.90;;;;;;7395700;19;20131;-78
2022/10/04 06:22:21;;;;;;;6.77;3.93;;;10.80;99.90;;;;;;7396389;19;20134;-77
2022/10/04 06:25:03;;;;;;;15.00;9.63;;;10.70;99.90;;;;;;7395775;19;20158;-77
2022/10/04 06:27:49;;;;;;;12.70;6.60;;;10.80;99.90;;;;;;7399842;19;20135;-77
2022/10/04 06:30:19;;;;;;;5.33;4.63;;;10.90;99.90;;;;;;7393232;19;20137;-77
2022/10/04 06:32:48;;;;;;;10.53;5.83;;;11.00;99.90;;;;;;7395680;19;20146;-78
2022/10/04 06:35:41;;;;;;;10.77;5.87;;;11.00;99.90;;;;;;7396638;19;20662;-78
2022/10/04 06:38:30;;;;;;;8.60;4.27;;;11.00;99.90;;;;;;7394799;19;20213;-76
2022/10/04 06:41:05;;;;;;;7.47;4.90;;;11.10;99.90;;;;;;7394676;19;20589;-77
2022/10/04 06:43:52;;;;;;;6.47;4.77;;;11.10;99.90;;;;;;7397176;19;20126;-77
2022/10/04 06:46:44;;;;;;;5.87;4.43;;;11.20;99.90;;;;;;7394538;19;20147;-78
2022/10/04 06:49:41;;;;;;;7.97;4.50;;;11.10;99.90;;;;;;7393731;19;20138;-78
2022/10/04 06:52:24;;;;;;;7.73;4.33;;;11.10;99.90;;;;;;7397798;19;20134;-78
2022/10/04 06:55:09;;;;;;;4.63;3.90;;;11.20;99.90;;;;;;7394040;19;20142;-77
2022/10/04 06:58:23;;;;;;;7.63;3.83;;;11.40;99.90;;;;;;7398255;19;20168;-77
2022/10/04 07:01:01;;;;;;;9.97;5.10;;;11.40;99.90;;;;;;7392874;19;20134;-76
2022/10/04 07:03:38;;;;;;;8.03;4.63;;;11.50;99.90;;;;;;7398149;19;20205;-77
2022/10/04 07:06:10;;;;;;;6.47;4.40;;;11.60;99.90;;;;;;7398286;19;20136;-77
2022/10/04 07:08:48;;;;;;;8.97;4.57;;;11.60;99.90;;;;;;7394477;19;20477;-77
2022/10/04 07:11:24;;;;;;;7.73;4.40;;;11.60;99.90;;;;;;7397982;19;20202;-77
2022/10/04 07:14:02;;;;;;;7.93;4.50;;;11.50;99.90;;;;;;7395196;19;20498;-77
2022/10/04 07:16:38;;;;;;;6.13;4.40;;;11.50;99.90;;;;;;7398357;19;20163;-76
2022/10/04 07:19:19;;;;;;;8.07;4.57;;;11.50;99.90;;;;;;7397370;19;20134;-77
2022/10/04 07:21:57;;;;;;;6.70;4.40;;;11.50;99.90;;;;;;7395853;19;20134;-76
2022/10/04 07:24:46;;;;;;;6.83;4.33;;;11.60;99.90;;;;;;7398005;19;20163;-77
2022/10/04 07:27:19;;;;;;;8.83;4.30;;;11.60;99.90;;;;;;7396210;19;20143;-77
2022/10/04 07:29:51;;;;;;;5.27;4.10;;;11.80;99.90;;;;;;7395611;19;20522;-77
2022/10/04 07:32:34;;;;;;;5.33;4.47;;;11.70;99.90;;;;;;7396492;19;20231;-77
2022/10/04 07:35:11;;;;;;;8.53;3.87;;;11.70;99.90;;;;;;7396920;19;20159;-77
2022/10/04 07:38:05;;;;;;;4.93;3.83;;;11.70;99.90;;;;;;7393473;19;20139;-78
2022/10/04 07:40:39;;;;;;;4.87;3.50;;;11.60;99.90;;;;;;7392879;19;20142;-77
2022/10/04 07:43:27;;;;;;;5.80;3.97;;;11.70;99.90;;;;;;7393415;19;20137;-77
2022/10/04 07:46:03;;;;;;;9.17;5.40;;;11.90;99.90;;;;;;7394475;19;20139;-78
2022/10/04 07:48:29;;;;;;;6.50;4.30;;;12.20;99.90;;;;;;7395648;19;20142;-76
2022/10/04 07:51:10;;;;;;;4.83;3.50;;;12.00;99.90;;;;;;7392588;19;20627;-78
2022/10/04 07:53:57;;;;;;;5.20;4.00;;;12.00;99.90;;;;;;7395767;19;20142;-77
2022/10/04 07:56:49;;;;;;;4.63;3.80;;;11.90;99.90;;;;;;7394548;19;20185;-77
2022/10/04 07:59:35;;;;;;;6.63;4.20;;;11.90;99.90;;;;;;7392309;19;20235;-76
2022/10/04 08:02:12;;;;;;;6.37;3.70;;;11.90;99.90;;;;;;7391631;19;20150;-77
2022/10/04 08:04:46;;;;;;;7.13;3.93;;;11.80;99.90;;;;;;7393164;19;20145;-77
2022/10/04 08:07:30;;;;;;;4.37;3.37;;;11.90;99.90;;;;;;7396749;19;20138;-78
2022/10/04 08:10:09;;;;;;;8.13;3.87;;;12.00;99.90;;;;;;7394757;19;20609;-78
2022/10/04 08:13:26;;;;;;;4.03;3.63;;;11.90;99.90;;;;;;7393216;19;20158;-79
2022/10/04 08:15:57;;;;;;;7.57;3.97;;;11.80;99.90;;;;;;7391702;19;20174;-76
2022/10/04 08:18:51;;;;;;;9.20;4.03;;;12.00;99.90;;;;;;7391820;19;20165;-75
2022/10/04 08:21:35;;;;;;;7.30;3.57;;;12.20;99.90;;;;;;7392658;19;20155;-77
2022/10/04 08:24:21;;;;;;;5.53;4.13;;;12.10;99.90;;;;;;7395598;19;20202;-77
2022/10/04 08:27:04;;;;;;;4.83;3.60;;;12.20;99.90;;;;;;7392233;19;20134;-77
2022/10/04 08:29:57;;;;;;;7.40;4.20;;;12.20;99.90;;;;;;7394386;19;20139;-78
2022/10/04 08:32:51;;;;;;;6.23;3.63;;;12.20;99.90;;;;;;7391225;19;20273;-76
2022/10/04 08:35:35;;;;;;;6.57;4.10;;;12.30;99.90;;;;;;7392854;19;20218;-77
2022/10/04 08:38:20;;;;;;;5.47;4.03;;;12.60;99.90;;;;;;7392763;19;20135;-77
2022/10/04 08:40:48;;;;;;;7.13;4.10;;;12.60;99.90;;;;;;7391240;19;20639;-77
2022/10/04 08:43:42;;;;;;;7.00;4.07;;;12.50;99.90;;;;;;7393152;19;20139;-77
2022/10/04 08:46:33;;;;;;;5.00;3.33;;;12.60;99.90;;;;;;7393622;19;20143;-76
2022/10/04 08:49:36;;;;;;;8.90;4.00;;;12.80;99.90;;;;;;7391137;19;20158;-77
2022/10/04 08:55:33;;;;;;;6.30;4.20;;;13.00;99.90;;;;;;7391204;19;20169;-76
2022/10/04 08:58:37;;;;;;;4.77;3.80;;;13.00;99.90;;;;;;7393452;19;20155;-77
2022/10/04 09:01:21;;;;;;;6.50;3.50;;;13.00;99.90;;;;;;7390920;19;20370;-76
2022/10/04 09:03:47;;;;;;;7.53;3.80;;;13.10;99.90;;;;;;7390627;19;20621;-76
2022/10/04 09:06:35;;;;;;;6.63;3.30;;;13.10;99.90;;;;;;7393246;19;20138;-78
2022/10/04 09:09:16;;;;;;;5.53;3.30;;;13.30;99.90;;;;;;7393135;19;20145;-77
2022/10/04 09:12:10;;;;;;;4.50;3.50;;;13.10;99.90;;;;;;7393766;19;20142;-77
2022/10/04 09:14:58;;;;;;;10.00;4.50;;;13.10;99.90;;;;;;7391691;19;20409;-76
2022/10/04 09:17:45;;;;;;;5.53;3.40;;;13.30;99.90;;;;;;7389819;19;20158;-76
2022/10/04 09:20:32;;;;;;;6.80;3.60;;;13.30;99.90;;;;;;7390600;19;20217;-76
2022/10/04 09:23:36;;;;;;;4.93;3.50;;;13.30;99.90;;;;;;7390738;19;20135;-76
2022/10/04 09:26:28;;;;;;;5.83;3.43;;;13.40;99.90;;;;;;7386961;19;20203;-77
2022/10/04 09:29:20;;;;;;;5.20;4.07;;;13.50;99.90;;;;;;7388361;19;20162;-76
2022/10/04 09:32:17;;;;;;;4.87;3.60;;;13.70;99.90;;;;;;7390856;19;20146;-77
2022/10/04 09:35:02;;;;;;;5.30;3.70;;;13.80;99.90;;;;;;7388418;19;20258;-77
2022/10/04 09:38:03;;;;;;;7.67;3.37;;;13.90;99.90;;;;;;7390724;19;20595;-77
2022/10/04 09:41:06;;;;;;;4.40;2.97;;;14.00;99.90;;;;;;7387752;19;20158;-77
2022/10/04 09:43:54;;;;;;;3.60;3.00;;;14.10;99.90;;;;;;7389425;19;20626;-77
2022/10/04 09:46:38;;;;;;;4.67;2.90;;;14.20;99.90;;;;;;7391355;19;20134;-76
2022/10/04 09:49:06;;;;;;;5.73;3.53;;;14.20;99.90;;;;;;7394840;19;20456;-76
2022/10/04 09:52:07;;;;;;;5.03;3.30;;;14.30;99.90;;;;;;7388367;19;20135;-76
2022/10/04 09:54:55;;;;;;;6.10;3.40;;;14.20;99.90;;;;;;7389690;19;20139;-78
2022/10/04 09:57:40;;;;;;;5.60;2.97;;;14.20;99.90;;;;;;7388495;19;20158;-75
2022/10/04 10:00:23;;;;;;;5.68;2.92;;;14.30;99.90;;;;;;7391266;19;20134;-76
2022/10/04 10:02:53;;;;;;;5.43;3.27;;;14.30;99.90;;;;;;7394942;19;20214;-76
2022/10/04 10:05:25;;;;;;;5.13;3.30;;;14.40;99.90;;;;;;7399933;19;20136;-75
2022/10/04 10:08:16;;;;;;;3.90;2.37;;;14.60;99.90;;;;;;7396846;19;20139;-77
2022/10/04 10:13:42;;;;;;;6.90;3.20;;;14.70;99.90;;;;;;7395417;19;20215;-76
2022/10/04 10:16:24;;;;;;;5.87;2.87;;;14.70;99.90;;;;;;7392362;19;20206;-76
2022/10/04 10:18:59;;;;;;;4.93;2.70;;;14.90;99.90;;;;;;7395636;19;20142;-77
2022/10/04 10:21:51;;;;;;;4.57;2.33;;;14.90;99.90;;;;;;7395378;19;20145;-76
2022/10/04 10:24:45;;;;;;;3.22;2.00;;;14.90;99.90;;;;;;7392225;19;20142;-76
2022/10/04 10:27:42;;;;;;;2.47;1.83;;;15.10;99.90;;;;;;7394576;19;20158;-76
2022/10/04 10:30:45;;;;;;;2.90;1.90;;;15.30;99.90;;;;;;7395152;19;20142;-76
2022/10/04 10:33:51;;;;;;;3.20;1.70;;;15.50;99.90;;;;;;7396445;19;20149;-77
2022/10/04 10:36:18;;;;;;;3.70;2.00;;;15.70;99.90;;;;;;7396510;19;20138;-76
2022/10/04 10:39:07;;;;;;;3.28;1.80;;;15.70;99.90;;;;;;7393190;19;20158;-76
2022/10/04 10:42:05;;;;;;;2.72;1.60;;;15.80;99.90;;;;;;7392172;19;20622;-74
2022/10/04 10:44:42;;;;;;;2.28;1.58;;;15.90;99.90;;;;;;7396797;19;20178;-76
2022/10/04 10:47:11;;;;;;;3.13;1.40;;;16.00;99.90;;;;;;7394005;19;20154;-76
2022/10/04 10:49:53;;;;;;;3.13;1.27;;;16.20;99.90;;;;;;7392714;19;20182;-76
2022/10/04 10:52:41;;;;;;;2.42;1.40;;;16.20;99.90;;;;;;7393459;19;20222;-76
2022/10/04 10:55:18;;;;;;;2.55;2.20;;;16.30;99.90;;;;;;7394118;19;20571;-75
2022/10/04 10:58:21;;;;;;;3.30;1.60;;;16.50;99.90;;;;;;7395326;19;20254;-75
2022/10/04 11:01:17;;;;;;;3.10;1.80;;;16.40;99.90;;;;;;7392183;19;20139;-75
2022/10/04 11:04:11;;;;;;;3.08;1.80;;;16.30;99.90;;;;;;7394182;19;20138;-74
2022/10/04 11:06:56;;;;;;;5.07;2.20;;;16.30;99.90;;;;;;7409759;19;20135;-75
2022/10/04 11:09:26;;;;;;;4.50;2.22;;;16.30;99.90;;;;;;7399619;19;20154;-76
2022/10/04 11:12:33;;;;;;;3.80;1.77;;;16.40;99.90;;;;;;7393624;19;20147;-75
2022/10/04 11:15:19;;;;;;;5.28;2.20;;;16.50;99.90;;;;;;7393017;19;20523;-76
2022/10/04 11:18:16;;;;;;;2.67;1.75;;;16.80;99.90;;;;;;7390202;19;20161;-76
2022/10/04 11:20:58;;;;;;;3.92;2.35;;;16.70;99.90;;;;;;7391207;19;20612;-76
2022/10/04 11:23:55;;;;;;;3.35;2.40;;;16.80;99.90;;;;;;7395768;19;20479;-77
2022/10/04 11:26:58;;;;;;;4.25;2.38;;;16.80;99.90;;;;;;7390871;19;20146;-76
2022/10/04 11:29:38;;;;;;;5.35;2.08;;;16.90;99.90;;;;;;7395912;19;20130;-75
2022/10/04 11:32:22;;;;;;;4.20;2.20;;;17.00;99.90;;;;;;7394914;19;20134;-76
2022/10/04 11:35:00;;;;;;;5.40;2.20;;;17.00;99.90;;;;;;7392156;19;20214;-76
2022/10/04 11:38:12;;;;;;;4.15;2.30;;;17.00;99.90;;;;;;7393415;19;20959;-75
2022/10/04 11:41:16;;;;;;;4.70;2.10;;;16.90;99.90;;;;;;7389247;19;20617;-75
2022/10/04 11:44:15;;;;;;;6.03;2.00;;;16.90;99.90;;;;;;7392500;19;20138;-76
2022/10/04 11:46:49;;;;;;;4.35;2.20;;;16.90;99.90;;;;;;7393343;19;20234;-76
2022/10/04 11:49:34;;;;;;;7.05;2.70;;;17.10;99.90;;;;;;7392546;19;20553;-75
2022/10/04 11:52:39;;;;;;;3.38;2.33;;;17.10;99.90;;;;;;7394284;19;20673;-75
2022/10/04 11:55:08;;;;;;;2.72;1.80;;;17.10;99.90;;;;;;7392284;19;20269;-76
2022/10/04 11:57:52;;;;;;;3.75;2.00;;;17.10;99.90;;;;;;7392587;19;20135;-75
2022/10/04 12:00:20;;;;;;;3.30;1.80;;;17.40;99.90;;;;;;7392690;19;20151;-75
2022/10/04 12:03:23;;;;;;;3.33;1.80;;;17.60;99.90;;;;;;7393256;19;20142;-75
2022/10/04 12:06:33;;;;;;;6.63;3.00;;;17.70;99.90;;;;;;7390862;19;20138;-76
2022/10/04 12:09:16;;;;;;;5.57;2.40;;;17.60;99.90;;;;;;7392042;19;20134;-75
2022/10/04 12:15:07;;;;;;;1.90;1.60;;;17.70;99.90;;;;;;7393405;19;20161;-76
2022/10/04 12:17:45;;;;;;;4.38;1.85;;;17.80;99.90;;;;;;7391784;19;20158;-77
2022/10/04 12:20:29;;;;;;;2.83;1.77;;;17.60;99.90;;;;;;7390974;19;20138;-76
2022/10/04 12:22:55;;;;;;;3.22;1.88;;;17.70;99.90;;;;;;7392457;19;20231;-75
2022/10/04 12:25:52;;;;;;;4.65;1.48;;;17.80;99.90;;;;;;7389823;19;20150;-76
2022/10/04 12:28:52;;;;;;;4.57;1.60;;;17.90;99.90;;;;;;7391117;19;20572;-77
2022/10/04 12:31:55;;;;;;;3.67;1.70;;;18.00;99.90;;;;;;7391267;19;20149;-76
2022/10/04 12:34:35;;;;;;;4.32;1.73;;;18.00;99.90;;;;;;7387625;19;20209;-77
2022/10/04 12:37:26;;;;;;;3.95;1.42;;;18.00;99.90;;;;;;7390696;19;20180;-77
2022/10/04 12:40:10;;;;;;;3.63;1.65;;;18.10;99.90;;;;;;7389341;19;20150;-77
2022/10/04 12:43:08;;;;;;;3.75;1.65;;;18.20;99.90;;;;;;7391086;19;20579;-76
2022/10/04 12:45:55;;;;;;;3.45;1.85;;;18.30;99.90;;;;;;7391323;19;20500;-76
2022/10/04 12:48:33;;;;;;;8.85;2.28;;;18.40;99.90;;;;;;7388569;19;20146;-76
2022/10/04 12:51:18;;;;;;;2.53;1.95;;;18.40;99.90;;;;;;7392377;19;20197;-78
2022/10/04 12:54:09;;;;;;;6.13;2.10;;;18.60;99.90;;;;;;7389020;19;20134;-76
2022/10/04 12:57:03;;;;;;;4.18;2.63;;;18.60;99.90;;;;;;7391478;19;20492;-75
2022/10/04 12:59:35;;;;;;;2.72;1.67;;;18.50;99.90;;;;;;7389512;19;20249;-75
2022/10/04 13:02:20;;;;;;;3.70;1.80;;;18.60;99.90;;;;;;7391361;19;20154;-76
2022/10/04 13:04:53;;;;;;;2.47;1.60;;;18.50;99.90;;;;;;7389844;19;20126;-76
2022/10/04 13:07:25;;;;;;;3.45;1.70;;;18.50;99.90;;;;;;7390435;19;20218;-76
2022/10/04 13:09:52;;;;;;;3.25;1.75;;;18.60;99.90;;;;;;7391056;19;20193;-76
2022/10/04 13:12:23;;;;;;;3.20;1.80;;;18.70;99.90;;;;;;7391340;19;20139;-76
2022/10/04 13:14:59;;;;;;;2.70;1.92;;;18.80;99.90;;;;;;7391448;19;20145;-76
2022/10/04 13:17:40;;;;;;;3.08;1.90;;;18.80;99.90;;;;;;7387430;19;20184;-76
2022/10/04 13:20:30;;;;;;;2.83;1.75;;;18.90;99.90;;;;;;7389087;19;20159;-76
2022/10/04 13:23:13;;;;;;;4.10;1.75;;;18.90;99.90;;;;;;7388704;19;20222;-75
2022/10/04 13:25:55;;;;;;;2.35;1.50;;;18.80;99.90;;;;;;7387161;19;20143;-76
2022/10/04 13:28:26;;;;;;;2.92;1.60;;;18.70;99.90;;;;;;7390084;19;20167;-76
2022/10/04 13:31:06;;;;;;;1.80;1.38;;;18.70;99.90;;;;;;7388806;19;20198;-76
2022/10/04 13:34:10;;;;;;;2.20;1.52;;;18.60;99.90;;;;;;7387964;19;20448;-75
2022/10/04 13:36:47;;;;;;;2.67;1.70;;;18.80;99.90;;;;;;7391468;19;20137;-76
2022/10/04 13:39:37;;;;;;;5.20;1.65;;;18.70;99.90;;;;;;7395921;19;20536;-76
2022/10/04 13:42:40;;;;;;;4.07;1.80;;;18.80;99.90;;;;;;7395516;19;20138;-75
2022/10/04 13:45:17;;;;;;;2.63;1.30;;;18.80;99.90;;;;;;7396517;19;20137;-76
2022/10/04 13:48:07;;;;;;;3.47;2.00;;;18.80;99.90;;;;;;7396203;19;20227;-78
2022/10/04 13:50:58;;;;;;;8.93;3.65;;;18.80;99.90;;;;;;7396000;19;20131;-76
2022/10/04 13:56:36;;;;;;;3.67;2.40;;;19.00;99.90;;;;;;7396151;19;20143;-76
2022/10/04 13:59:05;;;;;;;2.28;1.60;;;18.90;99.90;;;;;;7392786;19;20138;-75
2022/10/04 14:02:12;;;;;;;5.30;1.85;;;19.00;99.90;;;;;;7393185;19;20597;-75
2022/10/04 14:05:00;;;;;;;4.78;2.47;;;19.10;99.90;;;;;;7394888;19;20150;-76
2022/10/04 14:08:08;;;;;;;2.45;2.00;;;18.90;99.90;;;;;;7396129;19;20138;-77
2022/10/04 14:11:12;;;;;;;3.50;1.30;;;18.80;99.90;;;;;;7393395;19;20634;-76